sensor_id;sensor_type;location;lat;lon;timestamp;P1;durP1;ratioP1;P2;durP2;ratioP2
15167;SDS011;7684;52.150;11.656;2022-08-19T00:02:24;23.20;;;20.80;;
15167;SDS011;7684;52.150;11.656;2022-08-19T00:04:50;22.77;;;20.60;;
15167;SDS011;7684;52.150;11.656;2022-08-19T00:07:17;23.67;;;21.17;;
15167;SDS011;7684;52.150;11.656;2022-08-19T00:09:44;23.30;;;21.20;;
15167;SDS011;7684;52.150;11.656;2022-08-19T00:12:11;22.92;;;20.73;;
15167;SDS011;7684;52.150;11.656;2022-08-19T00:14:37;23.42;;;21.13;;
15167;SDS011;7684;52.150;11.656;2022-08-19T00:17:05;24.25;;;22.00;;
15167;SDS011;7684;52.150;11.656;2022-08-19T00:19:33;24.13;;;21.80;;
15167;SDS011;7684;52.150;11.656;2022-08-19T00:21:59;26.05;;;23.55;;
15167;SDS011;7684;52.150;11.656;2022-08-19T00:24:25;27.27;;;24.48;;
15167;SDS011;7684;52.150;11.656;2022-08-19T00:26:54;25.67;;;23.27;;
15167;SDS011;7684;52.150;11.656;2022-08-19T00:29:21;28.38;;;25.40;;
15167;SDS011;7684;52.150;11.656;2022-08-19T00:31:48;26.75;;;24.27;;
15167;SDS011;7684;52.150;11.656;2022-08-19T00:34:17;29.85;;;27.05;;
15167;SDS011;7684;52.150;11.656;2022-08-19T00:36:45;29.13;;;26.42;;
15167;SDS011;7684;52.150;11.656;2022-08-19T00:39:12;30.40;;;27.58;;
15167;SDS011;7684;52.150;11.656;2022-08-19T00:41:39;31.77;;;28.67;;
15167;SDS011;7684;52.150;11.656;2022-08-19T00:44:06;32.42;;;29.33;;
15167;SDS011;7684;52.150;11.656;2022-08-19T00:46:33;32.58;;;29.38;;
15167;SDS011;7684;52.150;11.656;2022-08-19T00:49:00;30.42;;;27.45;;
15167;SDS011;7684;52.150;11.656;2022-08-19T00:51:28;33.35;;;30.25;;
15167;SDS011;7684;52.150;11.656;2022-08-19T00:53:58;32.50;;;29.30;;
15167;SDS011;7684;52.150;11.656;2022-08-19T00:56:25;32.25;;;29.13;;
15167;SDS011;7684;52.150;11.656;2022-08-19T00:58:52;34.58;;;31.30;;
15167;SDS011;7684;52.150;11.656;2022-08-19T01:01:20;31.30;;;28.33;;
15167;SDS011;7684;52.150;11.656;2022-08-19T01:03:46;32.05;;;29.05;;
15167;SDS011;7684;52.150;11.656;2022-08-19T01:06:12;32.95;;;29.67;;
15167;SDS011;7684;52.150;11.656;2022-08-19T01:08:39;32.05;;;29.05;;
15167;SDS011;7684;52.150;11.656;2022-08-19T01:11:07;33.28;;;30.20;;
15167;SDS011;7684;52.150;11.656;2022-08-19T01:13:34;32.65;;;29.48;;
15167;SDS011;7684;52.150;11.656;2022-08-19T01:16:00;34.45;;;30.85;;
15167;SDS011;7684;52.150;11.656;2022-08-19T01:18:27;34.50;;;31.17;;
15167;SDS011;7684;52.150;11.656;2022-08-19T01:20:56;34.42;;;30.92;;
15167;SDS011;7684;52.150;11.656;2022-08-19T01:23:24;33.63;;;30.30;;
15167;SDS011;7684;52.150;11.656;2022-08-19T01:26:07;34.15;;;30.95;;
15167;SDS011;7684;52.150;11.656;2022-08-19T01:28:35;34.85;;;31.38;;
15167;SDS011;7684;52.150;11.656;2022-08-19T01:31:03;33.45;;;30.23;;
15167;SDS011;7684;52.150;11.656;2022-08-19T01:33:29;31.60;;;28.55;;
15167;SDS011;7684;52.150;11.656;2022-08-19T01:36:02;32.55;;;29.45;;
15167;SDS011;7684;52.150;11.656;2022-08-19T01:38:34;31.30;;;28.45;;
15167;SDS011;7684;52.150;11.656;2022-08-19T01:41:01;31.80;;;28.67;;
15167;SDS011;7684;52.150;11.656;2022-08-19T01:43:27;32.30;;;28.98;;
15167;SDS011;7684;52.150;11.656;2022-08-19T01:45:54;30.05;;;27.23;;
15167;SDS011;7684;52.150;11.656;2022-08-19T01:48:20;31.25;;;28.10;;
15167;SDS011;7684;52.150;11.656;2022-08-19T01:50:47;32.25;;;29.27;;
15167;SDS011;7684;52.150;11.656;2022-08-19T01:53:14;30.77;;;27.90;;
15167;SDS011;7684;52.150;11.656;2022-08-19T01:55:42;32.40;;;29.05;;
15167;SDS011;7684;52.150;11.656;2022-08-19T01:58:09;31.20;;;28.10;;
15167;SDS011;7684;52.150;11.656;2022-08-19T02:00:37;32.00;;;28.77;;
15167;SDS011;7684;52.150;11.656;2022-08-19T02:03:03;31.77;;;28.77;;
15167;SDS011;7684;52.150;11.656;2022-08-19T02:05:31;31.45;;;28.52;;
15167;SDS011;7684;52.150;11.656;2022-08-19T02:07:57;30.27;;;27.27;;
15167;SDS011;7684;52.150;11.656;2022-08-19T02:10:24;32.15;;;29.17;;
15167;SDS011;7684;52.150;11.656;2022-08-19T02:12:52;33.10;;;28.55;;
15167;SDS011;7684;52.150;11.656;2022-08-19T02:15:19;29.00;;;26.13;;
15167;SDS011;7684;52.150;11.656;2022-08-19T02:17:47;28.52;;;25.83;;
15167;SDS011;7684;52.150;11.656;2022-08-19T02:20:13;29.45;;;26.65;;
15167;SDS011;7684;52.150;11.656;2022-08-19T02:22:39;31.13;;;28.08;;
15167;SDS011;7684;52.150;11.656;2022-08-19T02:25:07;30.23;;;27.13;;
15167;SDS011;7684;52.150;11.656;2022-08-19T02:27:34;32.55;;;29.35;;
15167;SDS011;7684;52.150;11.656;2022-08-19T02:30:03;30.73;;;27.88;;
15167;SDS011;7684;52.150;11.656;2022-08-19T02:32:29;30.65;;;27.63;;
15167;SDS011;7684;52.150;11.656;2022-08-19T02:34:55;29.27;;;26.17;;
15167;SDS011;7684;52.150;11.656;2022-08-19T02:37:22;29.33;;;26.30;;
15167;SDS011;7684;52.150;11.656;2022-08-19T02:40:06;29.80;;;27.00;;
15167;SDS011;7684;52.150;11.656;2022-08-19T02:42:32;30.52;;;27.58;;
15167;SDS011;7684;52.150;11.656;2022-08-19T02:44:58;29.80;;;26.83;;
15167;SDS011;7684;52.150;11.656;2022-08-19T02:47:26;28.10;;;25.50;;
15167;SDS011;7684;52.150;11.656;2022-08-19T02:49:53;29.58;;;26.75;;
15167;SDS011;7684;52.150;11.656;2022-08-19T02:52:19;28.75;;;26.00;;
15167;SDS011;7684;52.150;11.656;2022-08-19T02:54:48;31.52;;;27.95;;
15167;SDS011;7684;52.150;11.656;2022-08-19T02:57:14;30.88;;;27.73;;
15167;SDS011;7684;52.150;11.656;2022-08-19T02:59:40;29.67;;;26.83;;
15167;SDS011;7684;52.150;11.656;2022-08-19T03:02:07;31.27;;;28.08;;
15167;SDS011;7684;52.150;11.656;2022-08-19T03:04:34;31.58;;;28.60;;
15167;SDS011;7684;52.150;11.656;2022-08-19T03:07:01;31.67;;;28.65;;
15167;SDS011;7684;52.150;11.656;2022-08-19T03:09:27;31.10;;;28.20;;
15167;SDS011;7684;52.150;11.656;2022-08-19T03:11:55;28.47;;;25.80;;
15167;SDS011;7684;52.150;11.656;2022-08-19T03:14:21;28.98;;;26.27;;
15167;SDS011;7684;52.150;11.656;2022-08-19T03:16:49;30.98;;;28.08;;
15167;SDS011;7684;52.150;11.656;2022-08-19T03:19:17;31.20;;;28.07;;
15167;SDS011;7684;52.150;11.656;2022-08-19T03:21:45;31.95;;;28.77;;
15167;SDS011;7684;52.150;11.656;2022-08-19T03:24:11;31.77;;;28.40;;
15167;SDS011;7684;52.150;11.656;2022-08-19T03:26:38;32.70;;;29.25;;
15167;SDS011;7684;52.150;11.656;2022-08-19T03:29:05;35.15;;;31.05;;
15167;SDS011;7684;52.150;11.656;2022-08-19T03:31:31;35.47;;;31.88;;
15167;SDS011;7684;52.150;11.656;2022-08-19T03:33:58;35.03;;;30.63;;
15167;SDS011;7684;52.150;11.656;2022-08-19T03:36:25;34.42;;;30.83;;
15167;SDS011;7684;52.150;11.656;2022-08-19T03:38:54;33.55;;;30.13;;
15167;SDS011;7684;52.150;11.656;2022-08-19T03:41:21;33.40;;;30.00;;
15167;SDS011;7684;52.150;11.656;2022-08-19T03:43:48;36.38;;;32.40;;
15167;SDS011;7684;52.150;11.656;2022-08-19T03:46:15;35.57;;;31.87;;
15167;SDS011;7684;52.150;11.656;2022-08-19T03:48:42;33.17;;;29.67;;
15167;SDS011;7684;52.150;11.656;2022-08-19T03:51:15;34.03;;;30.33;;
15167;SDS011;7684;52.150;11.656;2022-08-19T03:53:42;38.65;;;31.50;;
15167;SDS011;7684;52.150;11.656;2022-08-19T03:56:09;36.15;;;31.17;;
15167;SDS011;7684;52.150;11.656;2022-08-19T03:58:36;37.08;;;33.05;;
15167;SDS011;7684;52.150;11.656;2022-08-19T04:01:06;36.97;;;32.43;;
15167;SDS011;7684;52.150;11.656;2022-08-19T04:03:33;35.33;;;31.63;;
15167;SDS011;7684;52.150;11.656;2022-08-19T04:06:08;34.03;;;30.27;;
15167;SDS011;7684;52.150;11.656;2022-08-19T04:08:36;39.43;;;32.40;;
15167;SDS011;7684;52.150;11.656;2022-08-19T04:11:05;32.93;;;29.43;;
15167;SDS011;7684;52.150;11.656;2022-08-19T04:13:34;35.90;;;32.10;;
15167;SDS011;7684;52.150;11.656;2022-08-19T04:16:00;34.17;;;30.35;;
15167;SDS011;7684;52.150;11.656;2022-08-19T04:18:27;35.05;;;31.30;;
15167;SDS011;7684;52.150;11.656;2022-08-19T04:20:56;32.97;;;29.50;;
15167;SDS011;7684;52.150;11.656;2022-08-19T04:23:23;35.10;;;30.37;;
15167;SDS011;7684;52.150;11.656;2022-08-19T04:25:49;33.80;;;29.67;;
15167;SDS011;7684;52.150;11.656;2022-08-19T04:28:15;32.57;;;28.97;;
15167;SDS011;7684;52.150;11.656;2022-08-19T04:30:44;31.50;;;27.88;;
15167;SDS011;7684;52.150;11.656;2022-08-19T04:33:11;33.47;;;28.77;;
15167;SDS011;7684;52.150;11.656;2022-08-19T04:35:38;32.83;;;28.63;;
15167;SDS011;7684;52.150;11.656;2022-08-19T04:38:05;30.47;;;27.13;;
15167;SDS011;7684;52.150;11.656;2022-08-19T04:40:31;32.22;;;27.75;;
15167;SDS011;7684;52.150;11.656;2022-08-19T04:43:16;29.73;;;26.02;;
15167;SDS011;7684;52.150;11.656;2022-08-19T04:45:43;29.65;;;26.50;;
15167;SDS011;7684;52.150;11.656;2022-08-19T04:48:10;31.57;;;26.70;;
15167;SDS011;7684;52.150;11.656;2022-08-19T04:50:39;27.77;;;24.77;;
15167;SDS011;7684;52.150;11.656;2022-08-19T04:53:06;34.70;;;26.73;;
15167;SDS011;7684;52.150;11.656;2022-08-19T04:55:32;25.63;;;23.07;;
15167;SDS011;7684;52.150;11.656;2022-08-19T04:58:00;30.27;;;25.58;;
15167;SDS011;7684;52.150;11.656;2022-08-19T05:00:26;29.60;;;26.50;;
15167;SDS011;7684;52.150;11.656;2022-08-19T05:02:54;28.50;;;25.43;;
15167;SDS011;7684;52.150;11.656;2022-08-19T05:05:21;31.30;;;26.77;;
15167;SDS011;7684;52.150;11.656;2022-08-19T05:07:47;27.77;;;24.83;;
15167;SDS011;7684;52.150;11.656;2022-08-19T05:10:13;29.60;;;25.90;;
15167;SDS011;7684;52.150;11.656;2022-08-19T05:12:40;27.57;;;24.67;;
15167;SDS011;7684;52.150;11.656;2022-08-19T05:15:06;27.60;;;24.85;;
15167;SDS011;7684;52.150;11.656;2022-08-19T05:17:33;28.98;;;25.88;;
15167;SDS011;7684;52.150;11.656;2022-08-19T05:20:02;29.55;;;26.38;;
15167;SDS011;7684;52.150;11.656;2022-08-19T05:22:47;28.40;;;25.38;;
15167;SDS011;7684;52.150;11.656;2022-08-19T05:25:17;29.48;;;26.10;;
15167;SDS011;7684;52.150;11.656;2022-08-19T05:27:44;29.48;;;25.00;;
15167;SDS011;7684;52.150;11.656;2022-08-19T05:30:11;26.63;;;23.92;;
15167;SDS011;7684;52.150;11.656;2022-08-19T05:32:38;29.73;;;25.17;;
15167;SDS011;7684;52.150;11.656;2022-08-19T05:35:06;27.23;;;24.33;;
15167;SDS011;7684;52.150;11.656;2022-08-19T05:37:33;28.23;;;25.30;;
15167;SDS011;7684;52.150;11.656;2022-08-19T05:39:59;26.37;;;23.37;;
15167;SDS011;7684;52.150;11.656;2022-08-19T05:42:26;27.67;;;24.67;;
15167;SDS011;7684;52.150;11.656;2022-08-19T05:44:52;27.63;;;23.35;;
15167;SDS011;7684;52.150;11.656;2022-08-19T05:47:19;25.88;;;23.02;;
15167;SDS011;7684;52.150;11.656;2022-08-19T05:49:45;26.57;;;23.87;;
15167;SDS011;7684;52.150;11.656;2022-08-19T05:52:13;25.93;;;23.20;;
15167;SDS011;7684;52.150;11.656;2022-08-19T05:54:41;25.10;;;22.42;;
15167;SDS011;7684;52.150;11.656;2022-08-19T05:57:08;26.37;;;23.37;;
15167;SDS011;7684;52.150;11.656;2022-08-19T05:59:35;25.85;;;22.70;;
15167;SDS011;7684;52.150;11.656;2022-08-19T06:02:01;27.13;;;24.15;;
15167;SDS011;7684;52.150;11.656;2022-08-19T06:04:28;26.00;;;23.42;;
15167;SDS011;7684;52.150;11.656;2022-08-19T06:06:54;26.17;;;23.38;;
15167;SDS011;7684;52.150;11.656;2022-08-19T06:09:22;27.92;;;22.75;;
15167;SDS011;7684;52.150;11.656;2022-08-19T06:11:49;25.70;;;22.63;;
15167;SDS011;7684;52.150;11.656;2022-08-19T06:14:19;31.38;;;23.90;;
15167;SDS011;7684;52.150;11.656;2022-08-19T06:16:46;26.47;;;23.67;;
15167;SDS011;7684;52.150;11.656;2022-08-19T06:19:13;26.23;;;22.83;;
15167;SDS011;7684;52.150;11.656;2022-08-19T06:21:41;25.92;;;22.90;;
15167;SDS011;7684;52.150;11.656;2022-08-19T06:24:08;26.85;;;23.95;;
15167;SDS011;7684;52.150;11.656;2022-08-19T06:26:38;25.00;;;22.20;;
15167;SDS011;7684;52.150;11.656;2022-08-19T06:29:05;27.02;;;22.90;;
15167;SDS011;7684;52.150;11.656;2022-08-19T06:31:32;29.33;;;23.33;;
15167;SDS011;7684;52.150;11.656;2022-08-19T06:33:59;25.70;;;22.97;;
15167;SDS011;7684;52.150;11.656;2022-08-19T06:36:27;26.27;;;23.47;;
15167;SDS011;7684;52.150;11.656;2022-08-19T06:38:56;26.25;;;23.10;;
15167;SDS011;7684;52.150;11.656;2022-08-19T06:41:22;25.10;;;22.00;;
15167;SDS011;7684;52.150;11.656;2022-08-19T06:43:50;26.58;;;23.60;;
15167;SDS011;7684;52.150;11.656;2022-08-19T06:46:17;28.27;;;23.25;;
15167;SDS011;7684;52.150;11.656;2022-08-19T06:48:44;30.58;;;25.20;;
15167;SDS011;7684;52.150;11.656;2022-08-19T06:51:11;26.50;;;23.90;;
15167;SDS011;7684;52.150;11.656;2022-08-19T06:53:40;27.85;;;24.55;;
15167;SDS011;7684;52.150;11.656;2022-08-19T06:56:12;27.10;;;24.27;;
15167;SDS011;7684;52.150;11.656;2022-08-19T06:58:38;28.73;;;25.02;;
15167;SDS011;7684;52.150;11.656;2022-08-19T07:01:06;27.80;;;23.10;;
15167;SDS011;7684;52.150;11.656;2022-08-19T07:03:33;28.83;;;25.17;;
15167;SDS011;7684;52.150;11.656;2022-08-19T07:06:02;26.90;;;24.20;;
15167;SDS011;7684;52.150;11.656;2022-08-19T07:08:29;29.90;;;24.67;;
15167;SDS011;7684;52.150;11.656;2022-08-19T07:10:55;28.03;;;24.97;;
15167;SDS011;7684;52.150;11.656;2022-08-19T07:13:22;31.33;;;27.93;;
15167;SDS011;7684;52.150;11.656;2022-08-19T07:15:48;36.97;;;28.73;;
15167;SDS011;7684;52.150;11.656;2022-08-19T07:18:17;38.97;;;29.30;;
15167;SDS011;7684;52.150;11.656;2022-08-19T07:20:43;33.90;;;30.23;;
15167;SDS011;7684;52.150;11.656;2022-08-19T07:23:10;35.03;;;30.17;;
15167;SDS011;7684;52.150;11.656;2022-08-19T07:25:37;37.85;;;30.70;;
15167;SDS011;7684;52.150;11.656;2022-08-19T07:28:03;35.83;;;30.53;;
15167;SDS011;7684;52.150;11.656;2022-08-19T07:30:32;33.83;;;30.17;;
15167;SDS011;7684;52.150;11.656;2022-08-19T07:32:59;35.65;;;30.73;;
15167;SDS011;7684;52.150;11.656;2022-08-19T07:35:26;36.90;;;31.30;;
15167;SDS011;7684;52.150;11.656;2022-08-19T07:37:53;34.67;;;29.90;;
15167;SDS011;7684;52.150;11.656;2022-08-19T07:40:20;34.15;;;30.52;;
15167;SDS011;7684;52.150;11.656;2022-08-19T07:42:46;32.63;;;29.23;;
15167;SDS011;7684;52.150;11.656;2022-08-19T07:45:13;35.38;;;30.88;;
15167;SDS011;7684;52.150;11.656;2022-08-19T07:47:41;33.23;;;29.63;;
15167;SDS011;7684;52.150;11.656;2022-08-19T07:50:09;32.63;;;29.40;;
15167;SDS011;7684;52.150;11.656;2022-08-19T07:52:37;37.00;;;29.40;;
15167;SDS011;7684;52.150;11.656;2022-08-19T07:55:05;31.60;;;28.27;;
15167;SDS011;7684;52.150;11.656;2022-08-19T07:57:32;33.65;;;30.10;;
15167;SDS011;7684;52.150;11.656;2022-08-19T07:59:58;31.00;;;27.85;;
15167;SDS011;7684;52.150;11.656;2022-08-19T08:02:25;32.55;;;29.25;;
15167;SDS011;7684;52.150;11.656;2022-08-19T08:04:51;31.98;;;28.67;;
15167;SDS011;7684;52.150;11.656;2022-08-19T08:07:35;33.05;;;28.88;;
15167;SDS011;7684;52.150;11.656;2022-08-19T08:10:20;33.58;;;30.10;;
15167;SDS011;7684;52.150;11.656;2022-08-19T08:12:47;34.03;;;28.95;;
15167;SDS011;7684;52.150;11.656;2022-08-19T08:15:14;34.60;;;29.80;;
15167;SDS011;7684;52.150;11.656;2022-08-19T08:17:43;33.33;;;29.83;;
15167;SDS011;7684;52.150;11.656;2022-08-19T08:20:11;31.92;;;28.60;;
15167;SDS011;7684;52.150;11.656;2022-08-19T08:22:42;31.67;;;28.05;;
15167;SDS011;7684;52.150;11.656;2022-08-19T08:25:27;32.47;;;29.02;;
15167;SDS011;7684;52.150;11.656;2022-08-19T08:27:54;31.60;;;28.30;;
15167;SDS011;7684;52.150;11.656;2022-08-19T08:30:22;31.10;;;27.70;;
15167;SDS011;7684;52.150;11.656;2022-08-19T08:32:49;31.80;;;26.23;;
15167;SDS011;7684;52.150;11.656;2022-08-19T08:35:16;27.90;;;24.90;;
15167;SDS011;7684;52.150;11.656;2022-08-19T08:37:43;26.02;;;23.20;;
15167;SDS011;7684;52.150;11.656;2022-08-19T08:40:16;27.45;;;24.55;;
15167;SDS011;7684;52.150;11.656;2022-08-19T08:42:47;26.27;;;22.33;;
15167;SDS011;7684;52.150;11.656;2022-08-19T08:45:16;25.23;;;22.27;;
15167;SDS011;7684;52.150;11.656;2022-08-19T08:47:44;24.10;;;21.52;;
15167;SDS011;7684;52.150;11.656;2022-08-19T08:50:13;25.45;;;22.67;;
15167;SDS011;7684;52.150;11.656;2022-08-19T08:52:43;25.00;;;21.98;;
15167;SDS011;7684;52.150;11.656;2022-08-19T08:55:12;23.75;;;21.08;;
15167;SDS011;7684;52.150;11.656;2022-08-19T08:57:44;22.63;;;19.73;;
15167;SDS011;7684;52.150;11.656;2022-08-19T09:00:18;19.15;;;17.13;;
15167;SDS011;7684;52.150;11.656;2022-08-19T09:02:45;21.52;;;19.20;;
15167;SDS011;7684;52.150;11.656;2022-08-19T09:05:12;20.70;;;17.98;;
15167;SDS011;7684;52.150;11.656;2022-08-19T09:07:41;19.98;;;17.83;;
15167;SDS011;7684;52.150;11.656;2022-08-19T09:10:10;21.23;;;17.90;;
15167;SDS011;7684;52.150;11.656;2022-08-19T09:12:42;19.70;;;17.58;;
15167;SDS011;7684;52.150;11.656;2022-08-19T09:15:12;23.02;;;18.63;;
15167;SDS011;7684;52.150;11.656;2022-08-19T09:17:40;19.33;;;17.33;;
15167;SDS011;7684;52.150;11.656;2022-08-19T09:20:12;18.63;;;16.75;;
15167;SDS011;7684;52.150;11.656;2022-08-19T09:22:39;19.25;;;17.25;;
15167;SDS011;7684;52.150;11.656;2022-08-19T09:25:08;20.50;;;18.35;;
15167;SDS011;7684;52.150;11.656;2022-08-19T09:27:35;20.90;;;18.73;;
15167;SDS011;7684;52.150;11.656;2022-08-19T09:30:02;20.75;;;17.67;;
15167;SDS011;7684;52.150;11.656;2022-08-19T09:32:29;18.77;;;16.88;;
15167;SDS011;7684;52.150;11.656;2022-08-19T09:34:57;19.67;;;17.63;;
15167;SDS011;7684;52.150;11.656;2022-08-19T09:37:25;17.80;;;16.00;;
15167;SDS011;7684;52.150;11.656;2022-08-19T09:39:52;18.02;;;16.33;;
15167;SDS011;7684;52.150;11.656;2022-08-19T09:42:18;18.13;;;16.42;;
15167;SDS011;7684;52.150;11.656;2022-08-19T09:44:46;15.82;;;14.25;;
15167;SDS011;7684;52.150;11.656;2022-08-19T09:47:12;16.27;;;14.32;;
15167;SDS011;7684;52.150;11.656;2022-08-19T09:49:40;15.38;;;13.77;;
15167;SDS011;7684;52.150;11.656;2022-08-19T09:52:09;17.27;;;15.52;;
15167;SDS011;7684;52.150;11.656;2022-08-19T09:54:35;14.73;;;13.25;;
15167;SDS011;7684;52.150;11.656;2022-08-19T09:57:02;15.73;;;13.45;;
15167;SDS011;7684;52.150;11.656;2022-08-19T09:59:29;15.63;;;14.00;;
15167;SDS011;7684;52.150;11.656;2022-08-19T10:01:55;16.02;;;14.32;;
15167;SDS011;7684;52.150;11.656;2022-08-19T10:04:22;18.05;;;14.55;;
15167;SDS011;7684;52.150;11.656;2022-08-19T10:07:10;15.38;;;12.90;;
15167;SDS011;7684;52.150;11.656;2022-08-19T10:09:36;15.73;;;14.13;;
15167;SDS011;7684;52.150;11.656;2022-08-19T10:12:03;17.63;;;14.40;;
15167;SDS011;7684;52.150;11.656;2022-08-19T10:14:30;17.13;;;14.23;;
15167;SDS011;7684;52.150;11.656;2022-08-19T10:16:57;16.50;;;14.48;;
15167;SDS011;7684;52.150;11.656;2022-08-19T10:19:25;15.45;;;13.73;;
15167;SDS011;7684;52.150;11.656;2022-08-19T10:21:55;15.48;;;13.65;;
15167;SDS011;7684;52.150;11.656;2022-08-19T10:24:22;17.23;;;14.95;;
15167;SDS011;7684;52.150;11.656;2022-08-19T10:26:52;17.83;;;15.52;;
15167;SDS011;7684;52.150;11.656;2022-08-19T10:29:18;16.20;;;14.60;;
15167;SDS011;7684;52.150;11.656;2022-08-19T10:31:45;16.27;;;14.57;;
15167;SDS011;7684;52.150;11.656;2022-08-19T10:34:12;18.08;;;14.63;;
15167;SDS011;7684;52.150;11.656;2022-08-19T10:36:38;16.60;;;14.95;;
15167;SDS011;7684;52.150;11.656;2022-08-19T10:39:07;15.98;;;14.20;;
15167;SDS011;7684;52.150;11.656;2022-08-19T10:41:36;16.08;;;14.27;;
15167;SDS011;7684;52.150;11.656;2022-08-19T10:44:03;18.45;;;15.30;;
15167;SDS011;7684;52.150;11.656;2022-08-19T10:46:30;16.27;;;13.63;;
15167;SDS011;7684;52.150;11.656;2022-08-19T10:48:57;14.10;;;11.95;;
15167;SDS011;7684;52.150;11.656;2022-08-19T10:51:24;14.60;;;12.23;;
15167;SDS011;7684;52.150;11.656;2022-08-19T10:54:08;14.65;;;13.10;;
15167;SDS011;7684;52.150;11.656;2022-08-19T10:56:35;15.55;;;13.60;;
15167;SDS011;7684;52.150;11.656;2022-08-19T10:59:17;15.45;;;13.25;;
15167;SDS011;7684;52.150;11.656;2022-08-19T11:01:43;15.38;;;13.75;;
15167;SDS011;7684;52.150;11.656;2022-08-19T11:04:10;15.45;;;13.75;;
15167;SDS011;7684;52.150;11.656;2022-08-19T11:06:38;17.00;;;15.32;;
15167;SDS011;7684;52.150;11.656;2022-08-19T11:09:06;17.10;;;15.23;;
15167;SDS011;7684;52.150;11.656;2022-08-19T11:11:32;15.05;;;13.55;;
15167;SDS011;7684;52.150;11.656;2022-08-19T11:14:07;19.08;;;14.95;;
15167;SDS011;7684;52.150;11.656;2022-08-19T11:16:34;15.85;;;13.80;;
15167;SDS011;7684;52.150;11.656;2022-08-19T11:19:01;15.65;;;13.82;;
15167;SDS011;7684;52.150;11.656;2022-08-19T11:21:28;14.43;;;13.00;;
15167;SDS011;7684;52.150;11.656;2022-08-19T11:23:58;16.73;;;14.15;;
15167;SDS011;7684;52.150;11.656;2022-08-19T11:26:25;13.65;;;12.27;;
15167;SDS011;7684;52.150;11.656;2022-08-19T11:28:52;15.32;;;13.73;;
15167;SDS011;7684;52.150;11.656;2022-08-19T11:31:22;14.52;;;13.02;;
15167;SDS011;7684;52.150;11.656;2022-08-19T11:33:49;16.17;;;14.60;;
15167;SDS011;7684;52.150;11.656;2022-08-19T11:36:17;15.55;;;14.05;;
15167;SDS011;7684;52.150;11.656;2022-08-19T11:38:45;14.30;;;12.82;;
15167;SDS011;7684;52.150;11.656;2022-08-19T11:41:13;16.20;;;14.63;;
15167;SDS011;7684;52.150;11.656;2022-08-19T11:43:40;14.95;;;13.40;;
15167;SDS011;7684;52.150;11.656;2022-08-19T11:46:07;15.63;;;14.10;;
15167;SDS011;7684;52.150;11.656;2022-08-19T11:48:36;16.67;;;14.70;;
15167;SDS011;7684;52.150;11.656;2022-08-19T11:51:03;14.85;;;13.35;;
15167;SDS011;7684;52.150;11.656;2022-08-19T11:53:31;13.77;;;12.38;;
15167;SDS011;7684;52.150;11.656;2022-08-19T11:55:57;13.38;;;11.52;;
15167;SDS011;7684;52.150;11.656;2022-08-19T11:58:24;13.13;;;11.98;;
15167;SDS011;7684;52.150;11.656;2022-08-19T12:00:52;14.52;;;12.98;;
15167;SDS011;7684;52.150;11.656;2022-08-19T12:03:18;13.20;;;11.98;;
15167;SDS011;7684;52.150;11.656;2022-08-19T12:05:46;13.13;;;11.93;;
15167;SDS011;7684;52.150;11.656;2022-08-19T12:08:12;13.13;;;11.93;;
15167;SDS011;7684;52.150;11.656;2022-08-19T12:10:40;12.32;;;11.13;;
15167;SDS011;7684;52.150;11.656;2022-08-19T12:13:09;14.02;;;12.60;;
15167;SDS011;7684;52.150;11.656;2022-08-19T12:15:36;14.88;;;13.32;;
15167;SDS011;7684;52.150;11.656;2022-08-19T12:18:03;14.27;;;12.85;;
15167;SDS011;7684;52.150;11.656;2022-08-19T12:20:30;12.50;;;11.30;;
15167;SDS011;7684;52.150;11.656;2022-08-19T12:22:57;12.93;;;11.75;;
15167;SDS011;7684;52.150;11.656;2022-08-19T12:25:24;14.48;;;12.95;;
15167;SDS011;7684;52.150;11.656;2022-08-19T12:27:50;14.80;;;13.27;;
15167;SDS011;7684;52.150;11.656;2022-08-19T12:30:17;15.63;;;14.13;;
15167;SDS011;7684;52.150;11.656;2022-08-19T12:32:43;14.65;;;13.13;;
15167;SDS011;7684;52.150;11.656;2022-08-19T12:35:09;22.58;;;11.50;;
15167;SDS011;7684;52.150;11.656;2022-08-19T12:37:36;13.63;;;12.43;;
15167;SDS011;7684;52.150;11.656;2022-08-19T12:40:05;14.90;;;13.32;;
15167;SDS011;7684;52.150;11.656;2022-08-19T12:42:31;13.13;;;11.93;;
15167;SDS011;7684;52.150;11.656;2022-08-19T12:44:58;14.27;;;12.88;;
15167;SDS011;7684;52.150;11.656;2022-08-19T12:47:24;13.32;;;12.10;;
15167;SDS011;7684;52.150;11.656;2022-08-19T12:49:51;15.82;;;14.32;;
15167;SDS011;7684;52.150;11.656;2022-08-19T12:52:17;15.25;;;13.75;;
15167;SDS011;7684;52.150;11.656;2022-08-19T12:54:46;13.25;;;11.98;;
15167;SDS011;7684;52.150;11.656;2022-08-19T12:57:14;12.63;;;11.52;;
15167;SDS011;7684;52.150;11.656;2022-08-19T12:59:40;12.98;;;11.75;;
15167;SDS011;7684;52.150;11.656;2022-08-19T13:02:07;13.00;;;11.70;;
15167;SDS011;7684;52.150;11.656;2022-08-19T13:04:34;13.02;;;11.73;;
15167;SDS011;7684;52.150;11.656;2022-08-19T13:07:03;13.82;;;12.48;;
15167;SDS011;7684;52.150;11.656;2022-08-19T13:09:29;13.57;;;12.02;;
15167;SDS011;7684;52.150;11.656;2022-08-19T13:11:55;13.02;;;11.77;;
15167;SDS011;7684;52.150;11.656;2022-08-19T13:14:23;13.02;;;11.82;;
15167;SDS011;7684;52.150;11.656;2022-08-19T13:16:49;13.20;;;11.93;;
15167;SDS011;7684;52.150;11.656;2022-08-19T13:19:16;13.15;;;11.63;;
15167;SDS011;7684;52.150;11.656;2022-08-19T13:21:45;13.77;;;12.48;;
15167;SDS011;7684;52.150;11.656;2022-08-19T13:24:15;13.40;;;12.02;;
15167;SDS011;7684;52.150;11.656;2022-08-19T13:26:41;12.85;;;11.48;;
15167;SDS011;7684;52.150;11.656;2022-08-19T13:29:07;12.90;;;11.60;;
15167;SDS011;7684;52.150;11.656;2022-08-19T13:31:52;12.02;;;10.82;;
15167;SDS011;7684;52.150;11.656;2022-08-19T13:34:36;13.30;;;12.00;;
15167;SDS011;7684;52.150;11.656;2022-08-19T13:37:03;12.27;;;10.77;;
15167;SDS011;7684;52.150;11.656;2022-08-19T13:39:30;11.57;;;10.55;;
15167;SDS011;7684;52.150;11.656;2022-08-19T13:41:57;11.15;;;10.15;;
15167;SDS011;7684;52.150;11.656;2022-08-19T13:44:26;12.68;;;11.40;;
15167;SDS011;7684;52.150;11.656;2022-08-19T13:46:59;11.70;;;10.60;;
15167;SDS011;7684;52.150;11.656;2022-08-19T13:49:27;11.45;;;9.65;;
15167;SDS011;7684;52.150;11.656;2022-08-19T13:51:55;10.10;;;9.15;;
15167;SDS011;7684;52.150;11.656;2022-08-19T13:54:22;10.45;;;9.45;;
15167;SDS011;7684;52.150;11.656;2022-08-19T13:56:48;11.50;;;9.65;;
15167;SDS011;7684;52.150;11.656;2022-08-19T13:59:15;9.63;;;8.57;;
15167;SDS011;7684;52.150;11.656;2022-08-19T14:01:42;10.40;;;9.32;;
15167;SDS011;7684;52.150;11.656;2022-08-19T14:04:09;9.82;;;8.85;;
15167;SDS011;7684;52.150;11.656;2022-08-19T14:06:36;11.80;;;10.60;;
15167;SDS011;7684;52.150;11.656;2022-08-19T14:09:02;10.68;;;9.43;;
15167;SDS011;7684;52.150;11.656;2022-08-19T14:11:31;10.45;;;9.45;;
15167;SDS011;7684;52.150;11.656;2022-08-19T14:13:57;10.25;;;9.35;;
15167;SDS011;7684;52.150;11.656;2022-08-19T14:16:23;10.57;;;9.68;;
15167;SDS011;7684;52.150;11.656;2022-08-19T14:18:52;12.95;;;10.07;;
15167;SDS011;7684;52.150;11.656;2022-08-19T14:21:21;10.98;;;9.82;;
15167;SDS011;7684;52.150;11.656;2022-08-19T14:23:48;13.32;;;9.93;;
15167;SDS011;7684;52.150;11.656;2022-08-19T14:26:16;11.90;;;10.80;;